createdAt,value
2017-09-27T00:00:47.637Z,0
2017-09-27T00:01:47.656Z,0
2017-09-27T00:02:47.358Z,0
2017-09-27T00:03:47.705Z,0
2017-09-27T00:04:47.718Z,0
2017-09-27T00:05:47.744Z,0
2017-09-27T00:06:47.765Z,0
2017-09-27T00:07:47.470Z,0
2017-09-27T00:08:47.808Z,0
2017-09-27T00:09:47.825Z,0
2017-09-27T00:11:02.448Z,0
2017-09-27T00:11:47.869Z,0
2017-09-27T00:12:47.895Z,0
2017-09-27T00:14:47.943Z,0
2017-09-27T00:16:02.551Z,0
2017-09-27T00:16:47.660Z,0
2017-09-27T00:18:02.594Z,0
2017-09-27T00:18:48.022Z,0
2017-09-27T00:19:48.045Z,0
2017-09-27T00:20:48.068Z,0
2017-09-27T00:21:48.088Z,0
2017-09-27T00:23:48.133Z,0
2017-09-27T00:24:47.517Z,0
2017-09-27T00:26:02.765Z,0
2017-09-27T00:26:47.890Z,0
2017-09-27T00:27:48.234Z,0
2017-09-27T00:28:48.242Z,0
2017-09-27T00:30:02.852Z,0
2017-09-27T00:30:47.969Z,0
2017-09-27T00:31:48.316Z,0
2017-09-27T00:32:48.004Z,0
2017-09-27T00:34:02.940Z,0
2017-09-27T00:34:47.734Z,0
2017-09-27T00:35:48.395Z,0
2017-09-27T00:36:48.416Z,0
2017-09-27T00:37:48.434Z,0
2017-09-27T00:38:47.827Z,0
2017-09-27T00:42:02.797Z,0
2017-09-27T00:42:48.553Z,0
2017-09-27T00:43:48.566Z,0
2017-09-27T00:44:48.587Z,0
2017-09-27T00:46:03.203Z,0
2017-09-27T00:47:48.017Z,0
2017-09-27T00:48:48.358Z,0
2017-09-27T00:49:48.059Z,0
2017-09-27T00:50:48.400Z,0
2017-09-27T00:51:48.740Z,0
2017-09-27T00:52:48.443Z,0
2017-09-27T00:53:48.781Z,0
2017-09-27T00:54:48.804Z,0
2017-09-27T00:55:48.826Z,0
2017-09-27T00:56:48.529Z,0
2017-09-27T00:58:03.465Z,0
2017-09-27T00:58:48.579Z,0
2017-09-27T00:59:48.914Z,0
2017-09-27T01:02:03.553Z,0
2017-09-27T01:02:48.977Z,0
2017-09-27T01:04:03.595Z,0
2017-09-27T01:05:03.616Z,0
2017-09-27T01:06:03.635Z,0
2017-09-27T01:06:48.746Z,0
2017-09-27T01:07:49.088Z,0
2017-09-27T01:08:49.107Z,0
2017-09-27T01:09:49.138Z,0
2017-09-27T01:10:49.156Z,0
2017-09-27T01:11:48.856Z,0
2017-09-27T01:14:03.814Z,0
2017-09-27T01:15:03.516Z,0
2017-09-27T01:15:49.273Z,0
2017-09-27T01:16:49.290Z,0
2017-09-27T01:17:49.301Z,0
2017-09-27T01:18:49.330Z,0
2017-09-27T01:20:03.942Z,0
2017-09-27T01:20:49.366Z,0
2017-09-27T01:21:49.395Z,0
2017-09-27T01:22:49.412Z,0
2017-09-27T01:23:49.485Z,0
2017-09-27T01:24:49.458Z,0
2017-09-27T01:25:49.475Z,0
2017-09-27T01:26:49.179Z,0
2017-09-27T01:27:49.522Z,0
2017-09-27T01:29:03.818Z,0
2017-09-27T01:29:49.564Z,0
2017-09-27T01:30:49.268Z,0
2017-09-27T01:31:49.619Z,0
2017-09-27T01:33:03.584Z,0
2017-09-27T01:34:04.245Z,0
2017-09-27T01:34:49.365Z,0
2017-09-27T01:35:49.378Z,0
2017-09-27T01:36:49.396Z,0
2017-09-27T01:37:49.418Z,0
2017-09-27T01:40:04.382Z,0
2017-09-27T01:40:49.500Z,0
2017-09-27T01:41:49.825Z,0
2017-09-27T01:42:49.527Z,0
2017-09-27T01:43:49.866Z,0
2017-09-27T01:44:49.890Z,0
2017-09-27T01:45:49.908Z,0
2017-09-27T01:46:49.294Z,0
2017-09-27T01:48:04.550Z,0
2017-09-27T01:49:04.565Z,0
2017-09-27T01:49:49.994Z,0
2017-09-27T01:50:50.018Z,0
2017-09-27T01:51:49.401Z,0
2017-09-27T01:52:50.063Z,0
2017-09-27T01:53:50.090Z,0
2017-09-27T01:55:50.126Z,0
2017-09-27T01:56:49.828Z,0
2017-09-27T01:57:50.172Z,0
2017-09-27T01:58:50.198Z,0
2017-09-27T01:59:49.889Z,0
2017-09-27T02:01:04.506Z,0
2017-09-27T02:01:50.258Z,0
2017-09-27T02:02:50.275Z,0
2017-09-27T02:03:49.981Z,0
2017-09-27T02:05:04.917Z,0
2017-09-27T02:05:50.346Z,0
2017-09-27T02:07:04.956Z,0
2017-09-27T02:07:50.395Z,0
2017-09-27T02:08:50.412Z,0
2017-09-27T02:09:50.145Z,0
2017-09-27T02:10:50.454Z,0
2017-09-27T02:11:50.471Z,0
2017-09-27T02:12:50.175Z,0
2017-09-27T02:13:50.517Z,0
2017-09-27T02:14:50.536Z,0
2017-09-27T02:15:50.556Z,0
2017-09-27T02:17:05.177Z,0
2017-09-27T02:17:50.283Z,0
2017-09-27T02:18:50.622Z,0
2017-09-27T02:19:50.332Z,0
2017-09-27T02:20:50.347Z,0
2017-09-27T02:21:50.370Z,0
2017-09-27T02:22:50.396Z,0
2017-09-27T02:23:50.739Z,0
2017-09-27T02:24:50.758Z,0
2017-09-27T02:25:50.460Z,0
2017-09-27T02:26:50.804Z,0
2017-09-27T02:27:50.820Z,0
2017-09-27T02:28:50.524Z,0
2017-09-27T02:29:50.543Z,0
2017-09-27T02:31:05.487Z,0
2017-09-27T02:32:05.505Z,0
2017-09-27T02:33:05.519Z,0
2017-09-27T02:33:50.635Z,0
2017-09-27T02:36:05.590Z,0
2017-09-27T02:36:51.028Z,0
2017-09-27T02:37:50.728Z,0
2017-09-27T02:38:50.740Z,0
2017-09-27T02:40:05.675Z,0
2017-09-27T02:40:51.103Z,0
2017-09-27T02:41:51.128Z,0
2017-09-27T02:42:51.144Z,0
2017-09-27T02:43:51.171Z,0
2017-09-27T02:44:51.191Z,0
2017-09-27T02:45:51.218Z,0
2017-09-27T02:46:50.917Z,0
2017-09-27T02:48:05.856Z,0
2017-09-27T02:49:05.871Z,0
2017-09-27T02:49:51.300Z,0
2017-09-27T02:51:05.594Z,0
2017-09-27T02:52:05.937Z,0
2017-09-27T02:52:52.373Z,0
2017-09-27T02:54:51.097Z,0
2017-09-27T02:55:51.435Z,0
2017-09-27T02:56:51.456Z,0
2017-09-27T02:59:06.084Z,0
2017-09-27T02:59:51.194Z,0
2017-09-27T03:00:51.587Z,0
2017-09-27T03:01:51.240Z,0
2017-09-27T03:03:06.181Z,0
2017-09-27T03:04:06.201Z,0
2017-09-27T03:05:06.218Z,0
2017-09-27T03:06:05.918Z,0
2017-09-27T03:07:06.265Z,0
2017-09-27T03:07:51.689Z,0
2017-09-27T03:08:51.714Z,0
2017-09-27T03:09:51.741Z,0
2017-09-27T03:11:06.029Z,0
2017-09-27T03:11:51.782Z,0
2017-09-27T03:12:51.482Z,0
2017-09-27T03:13:51.500Z,0
2017-09-27T03:14:51.844Z,0
2017-09-27T03:15:51.551Z,0
2017-09-27T03:16:51.887Z,0
2017-09-27T03:17:51.909Z,0
2017-09-27T03:18:51.929Z,0
2017-09-27T03:19:51.950Z,0
2017-09-27T03:20:51.975Z,0
2017-09-27T03:22:06.589Z,0
2017-09-27T03:23:06.612Z,0
2017-09-27T03:24:06.633Z,0
2017-09-27T03:24:51.745Z,0
2017-09-27T03:25:52.084Z,0
2017-09-27T03:27:06.696Z,0
2017-09-27T03:27:52.134Z,0
2017-09-27T03:28:52.157Z,0
2017-09-27T03:29:52.169Z,0
2017-09-27T03:31:51.896Z,0
2017-09-27T03:32:52.233Z,0
2017-09-27T03:33:51.938Z,0
2017-09-27T03:34:52.280Z,0
2017-09-27T03:36:06.889Z,0
2017-09-27T03:37:52.360Z,0
2017-09-27T03:38:52.376Z,0
2017-09-27T03:40:06.979Z,0
2017-09-27T03:40:52.099Z,0
2017-09-27T03:42:52.451Z,0
2017-09-27T03:43:52.473Z,0
2017-09-27T03:44:52.181Z,0
2017-09-27T03:45:52.197Z,0
2017-09-27T03:46:52.537Z,0
2017-09-27T03:47:52.564Z,0
2017-09-27T03:48:52.263Z,0
2017-09-27T03:49:52.285Z,0
2017-09-27T03:50:52.621Z,0
2017-09-27T03:52:07.239Z,0
2017-09-27T03:52:52.348Z,0
2017-09-27T03:53:52.687Z,0
2017-09-27T03:54:52.709Z,0
2017-09-27T03:57:07.026Z,0
2017-09-27T03:57:52.468Z,0
2017-09-27T03:58:52.160Z,0
2017-09-27T03:59:52.503Z,0
2017-09-27T04:00:52.849Z,0
2017-09-27T04:01:52.865Z,0
2017-09-27T04:02:52.883Z,0
2017-09-27T04:03:52.271Z,0
2017-09-27T04:04:52.614Z,0
2017-09-27T04:06:07.229Z,0
2017-09-27T04:06:52.333Z,0
2017-09-27T04:08:07.585Z,0
2017-09-27T04:08:53.011Z,0
2017-09-27T04:09:52.717Z,0
2017-09-27T04:10:52.736Z,0
2017-09-27T04:12:07.672Z,0
2017-09-27T04:13:07.694Z,0
2017-09-27T04:13:52.809Z,0
2017-09-27T04:16:07.453Z,0
2017-09-27T04:16:52.869Z,0
2017-09-27T04:17:53.217Z,0
2017-09-27T04:18:53.233Z,0
2017-09-27T04:19:53.252Z,0
2017-09-27T04:20:53.278Z,0
2017-09-27T04:21:53.295Z,0
2017-09-27T04:22:53.315Z,0
2017-09-27T04:24:07.934Z,0
2017-09-27T04:24:53.360Z,0
2017-09-27T04:25:53.382Z,0
2017-09-27T04:26:52.772Z,0
2017-09-27T04:27:53.424Z,0
2017-09-27T04:28:53.453Z,0
2017-09-27T04:30:07.743Z,0
2017-09-27T04:30:53.498Z,0
2017-09-27T04:31:53.520Z,0
2017-09-27T04:32:53.539Z,0
2017-09-27T04:33:53.558Z,0
2017-09-27T04:34:53.577Z,0
2017-09-27T04:35:53.281Z,0
2017-09-27T04:36:53.625Z,4
2017-09-27T04:37:53.326Z,4
2017-09-27T04:39:08.257Z,0
2017-09-27T04:39:53.697Z,4
2017-09-27T04:40:53.719Z,4
2017-09-27T04:42:53.753Z,8
2017-09-27T04:44:08.373Z,8
2017-09-27T04:44:53.798Z,8
2017-09-27T04:46:53.833Z,12
2017-09-27T04:48:08.451Z,16
2017-09-27T04:48:53.568Z,16
2017-09-27T04:49:53.905Z,20
2017-09-27T04:50:53.926Z,28
2017-09-27T04:51:53.948Z,28
2017-09-27T04:52:53.332Z,32
2017-09-27T04:53:53.673Z,36
2017-09-27T04:55:08.607Z,44
2017-09-27T04:55:53.714Z,48
2017-09-27T04:57:08.328Z,48
2017-09-27T04:57:53.762Z,52
2017-09-27T04:58:54.107Z,52
2017-09-27T05:01:08.736Z,64
2017-09-27T05:01:53.850Z,68
2017-09-27T05:02:54.188Z,76
2017-09-27T05:03:53.572Z,84
2017-09-27T05:04:54.278Z,92
2017-09-27T05:06:08.856Z,104
2017-09-27T05:06:53.635Z,100
2017-09-27T05:07:54.297Z,116
2017-09-27T05:08:54.317Z,120
2017-09-27T05:09:54.338Z,124
2017-09-27T05:11:08.952Z,144
2017-09-27T05:11:54.385Z,152
2017-09-27T05:12:54.088Z,164
2017-09-27T05:13:54.457Z,168
2017-09-27T05:16:09.061Z,200
2017-09-27T05:16:54.493Z,216
2017-09-27T05:17:54.194Z,224
2017-09-27T05:18:54.533Z,228
2017-09-27T05:19:54.555Z,244
2017-09-27T05:20:54.588Z,268
2017-09-27T05:21:54.332Z,288
2017-09-27T05:22:54.624Z,328
2017-09-27T05:23:54.645Z,332
2017-09-27T05:24:54.344Z,356
2017-09-27T05:25:54.370Z,380
2017-09-27T05:27:09.300Z,480
2017-09-27T05:27:54.776Z,472
2017-09-27T05:28:54.754Z,472
2017-09-27T05:29:54.774Z,496
2017-09-27T05:31:09.389Z,504
2017-09-27T05:32:09.406Z,504
2017-09-27T05:32:54.842Z,544
2017-09-27T05:33:54.863Z,580
2017-09-27T05:34:54.883Z,556
2017-09-27T05:35:54.904Z,504
2017-09-27T05:36:54.931Z,524
2017-09-27T05:37:54.950Z,500
2017-09-27T05:38:54.972Z,564
2017-09-27T05:39:54.696Z,520
2017-09-27T05:40:55.016Z,528
2017-09-27T05:41:55.035Z,508
2017-09-27T05:43:09.646Z,572
2017-09-27T05:43:55.089Z,576
2017-09-27T05:46:09.395Z,584
2017-09-27T05:46:55.143Z,524
2017-09-27T05:47:55.171Z,552
2017-09-27T05:48:54.870Z,580
2017-09-27T05:49:55.209Z,628
2017-09-27T05:50:54.912Z,668
2017-09-27T05:51:55.253Z,648
2017-09-27T05:52:55.269Z,624
2017-09-27T05:53:55.299Z,656
2017-09-27T05:54:55.373Z,740
2017-09-27T05:55:55.347Z,728
2017-09-27T05:56:55.361Z,720
2017-09-27T05:57:55.067Z,692
2017-09-27T05:59:09.999Z,728
2017-09-27T06:00:55.133Z,764
2017-09-27T06:01:54.831Z,760
2017-09-27T06:02:55.179Z,764
2017-09-27T06:03:55.525Z,788
2017-09-27T06:05:10.128Z,824
2017-09-27T06:05:55.240Z,812
2017-09-27T06:06:55.261Z,808
2017-09-27T06:07:55.612Z,836
2017-09-27T06:08:55.305Z,840
2017-09-27T06:09:55.329Z,884
2017-09-27T06:10:55.352Z,932
2017-09-27T06:11:55.372Z,1008
2017-09-27T06:13:09.992Z,1060
2017-09-27T06:14:10.328Z,1172
2017-09-27T06:14:55.437Z,1188
2017-09-27T06:15:55.777Z,1192
2017-09-27T06:16:55.480Z,1144
2017-09-27T06:17:55.504Z,1204
2017-09-27T06:18:55.524Z,1224
2017-09-27T06:19:55.868Z,1236
2017-09-27T06:20:55.251Z,1120
2017-09-27T06:21:55.916Z,1068
2017-09-27T06:22:55.937Z,1072
2017-09-27T06:23:55.635Z,1092
2017-09-27T06:24:55.020Z,1144
2017-09-27T06:25:56.001Z,1176
2017-09-27T06:26:55.701Z,1152
2017-09-27T06:27:56.041Z,1132
2017-09-27T06:28:56.064Z,1236
2017-09-27T06:30:10.681Z,1212
2017-09-27T06:30:56.117Z,1256
2017-09-27T06:32:10.406Z,1400
2017-09-27T06:32:56.153Z,1388
2017-09-27T06:33:56.185Z,1240
2017-09-27T06:34:55.884Z,1228
2017-09-27T06:35:55.913Z,1352
2017-09-27T06:36:55.919Z,1316
2017-09-27T06:37:55.992Z,1256
2017-09-27T06:38:55.649Z,1208
2017-09-27T06:39:55.993Z,1296
2017-09-27T06:40:56.014Z,1280
2017-09-27T06:41:56.035Z,1296
2017-09-27T06:42:55.734Z,1288
2017-09-27T06:43:56.075Z,1400
2017-09-27T06:44:56.095Z,1360
2017-09-27T06:46:11.024Z,1456
2017-09-27T06:47:56.489Z,1500
2017-09-27T06:48:56.188Z,1520
2017-09-27T06:50:11.119Z,1628
2017-09-27T06:50:56.550Z,1644
2017-09-27T06:51:56.252Z,1740
2017-09-27T06:53:56.614Z,1744
2017-09-27T06:55:11.226Z,1668
2017-09-27T06:55:56.654Z,1704
2017-09-27T06:56:56.362Z,1636
2017-09-27T06:57:56.701Z,1688
2017-09-27T06:58:56.410Z,1784
2017-09-27T06:59:56.423Z,1592
2017-09-27T07:00:56.768Z,1560
2017-09-27T07:02:11.481Z,1672
2017-09-27T07:02:56.497Z,1580
2017-09-27T07:03:56.515Z,1540
2017-09-27T07:06:11.474Z,1536
2017-09-27T07:07:11.495Z,1776
2017-09-27T07:07:56.928Z,1700
2017-09-27T07:08:56.627Z,1620
2017-09-27T07:09:56.648Z,1812
2017-09-27T07:10:56.989Z,1696
2017-09-27T07:11:57.023Z,1756
2017-09-27T07:12:56.713Z,1816
2017-09-27T07:13:56.741Z,1848
2017-09-27T07:14:56.764Z,1796
2017-09-27T07:15:57.105Z,1728
2017-09-27T07:16:57.126Z,1880
2017-09-27T07:18:11.419Z,1960
2017-09-27T07:19:11.766Z,1904
2017-09-27T07:19:57.189Z,1956
2017-09-27T07:21:11.802Z,1944
2017-09-27T07:21:56.598Z,2024
2017-09-27T07:23:11.846Z,2060
2017-09-27T07:24:11.871Z,2176
2017-09-27T07:24:56.986Z,2480
2017-09-27T07:25:57.002Z,2572
2017-09-27T07:26:57.351Z,2652
2017-09-27T07:27:56.736Z,2640
2017-09-27T07:28:57.393Z,2668
2017-09-27T07:29:57.408Z,2536
2017-09-27T07:30:57.114Z,2572
2017-09-27T07:31:57.134Z,2996
2017-09-27T07:32:57.171Z,2848
2017-09-27T07:34:12.096Z,2324
2017-09-27T07:35:57.234Z,2956
2017-09-27T07:36:56.930Z,3188
2017-09-27T07:38:12.188Z,2960
2017-09-27T07:38:57.614Z,2980
2017-09-27T07:39:57.317Z,2828
2017-09-27T07:40:57.661Z,2752
2017-09-27T07:42:12.269Z,2916
2017-09-27T07:42:57.700Z,3300
2017-09-27T07:43:57.407Z,3144
2017-09-27T07:44:57.750Z,3236
2017-09-27T07:45:57.133Z,2996
2017-09-27T07:47:57.506Z,3636
2017-09-27T07:49:12.425Z,3320
2017-09-27T07:49:57.855Z,3648
2017-09-27T07:50:57.880Z,4148
2017-09-27T07:51:57.905Z,4200
2017-09-27T07:52:57.289Z,3480
2017-09-27T07:53:57.953Z,3676
2017-09-27T07:55:12.565Z,3460
2017-09-27T07:55:57.995Z,3696
2017-09-27T07:56:58.039Z,3388
2017-09-27T07:57:58.038Z,4156
2017-09-27T07:58:58.067Z,3928
2017-09-27T07:59:58.085Z,4316
2017-09-27T08:00:58.112Z,3808
2017-09-27T08:01:58.130Z,3928
2017-09-27T08:02:58.150Z,3940
2017-09-27T08:03:58.179Z,4740
2017-09-27T08:04:58.197Z,4952
2017-09-27T08:05:57.903Z,5180
2017-09-27T08:06:58.243Z,5244
2017-09-27T08:08:12.854Z,4564
2017-09-27T08:09:12.560Z,5028
2017-09-27T08:09:58.319Z,5108
2017-09-27T08:11:58.037Z,5584
2017-09-27T08:12:58.382Z,5368
2017-09-27T08:13:58.083Z,5112
2017-09-27T08:15:13.012Z,5308
2017-09-27T08:15:58.127Z,4908
2017-09-27T08:17:58.170Z,4660
2017-09-27T08:18:58.511Z,5120
2017-09-27T08:19:58.541Z,4572
2017-09-27T08:21:12.835Z,4640
2017-09-27T08:22:58.613Z,3824
2017-09-27T08:25:13.243Z,3400
2017-09-27T08:25:58.671Z,3484
2017-09-27T08:26:58.395Z,3796
2017-09-27T08:27:57.764Z,4348
2017-09-27T08:28:58.423Z,3720
2017-09-27T08:29:57.810Z,3276
2017-09-27T08:30:58.469Z,2044
2017-09-27T08:32:58.513Z,3160
2017-09-27T08:33:57.905Z,4360
2017-09-27T08:34:58.876Z,4040
2017-09-27T08:35:58.581Z,4700
2017-09-27T08:37:13.521Z,5152
2017-09-27T08:37:58.630Z,5772
2017-09-27T08:38:58.649Z,5068
2017-09-27T08:39:59.000Z,5364
2017-09-27T08:40:59.020Z,6048
2017-09-27T08:41:59.042Z,6240
2017-09-27T08:42:59.063Z,5292
2017-09-27T08:43:59.084Z,4852
2017-09-27T08:44:58.791Z,5696
2017-09-27T08:45:58.815Z,5212
2017-09-27T08:46:58.838Z,5376
2017-09-27T08:47:59.183Z,5200
2017-09-27T08:48:58.563Z,5312
2017-09-27T08:49:59.225Z,5816
2017-09-27T08:50:59.255Z,5380
2017-09-27T08:51:58.633Z,4276
2017-09-27T08:53:13.886Z,4048
2017-09-27T08:54:59.349Z,4404
2017-09-27T08:56:13.316Z,5976
2017-09-27T08:56:59.386Z,8096
2017-09-27T08:57:59.416Z,7856
2017-09-27T08:58:59.432Z,7080
2017-09-27T08:59:59.464Z,8272
2017-09-27T09:00:59.155Z,9472
2017-09-27T09:01:58.863Z,8964
2017-09-27T09:02:58.891Z,8724
2017-09-27T09:03:58.909Z,9024
2017-09-27T09:04:59.255Z,8684
2017-09-27T09:05:59.590Z,8048
2017-09-27T09:06:59.612Z,9248
2017-09-27T09:07:59.322Z,9608
2017-09-27T09:09:14.255Z,8480
2017-09-27T09:09:58.728Z,7372
2017-09-27T09:10:59.392Z,7196
2017-09-27T09:11:59.738Z,6276
2017-09-27T09:13:59.461Z,6516
2017-09-27T09:15:14.391Z,6340
2017-09-27T09:15:59.829Z,6376
2017-09-27T09:17:14.439Z,5444
2017-09-27T09:17:59.553Z,5960
2017-09-27T09:18:59.894Z,6060
2017-09-27T09:19:59.918Z,5484
2017-09-27T09:20:59.629Z,7612
2017-09-27T09:21:59.651Z,12276
2017-09-27T09:22:59.985Z,9388
2017-09-27T09:24:14.295Z,9120
2017-09-27T09:24:59.719Z,10236
2017-09-27T09:25:59.750Z,9888
2017-09-27T09:27:00.086Z,11396
2017-09-27T09:27:59.800Z,11084
2017-09-27T09:28:59.815Z,12780
2017-09-27T09:30:14.749Z,11540
2017-09-27T09:30:59.546Z,10920
2017-09-27T09:31:59.882Z,14168
2017-09-27T09:32:59.913Z,13920
2017-09-27T09:33:59.935Z,14000
2017-09-27T09:34:59.957Z,12108
2017-09-27T09:35:59.676Z,13132
2017-09-27T09:37:00.014Z,11676
2017-09-27T09:38:00.033Z,10280
2017-09-27T09:39:00.055Z,10552
2017-09-27T09:40:15.044Z,10888
2017-09-27T09:41:00.101Z,11080
2017-09-27T09:42:00.442Z,11004
2017-09-27T09:43:00.474Z,13392
2017-09-27T09:44:00.176Z,8652
2017-09-27T09:45:00.211Z,10652
2017-09-27T09:46:00.542Z,12324
2017-09-27T09:47:00.246Z,8620
2017-09-27T09:48:00.274Z,8840
2017-09-27T09:49:00.611Z,7912
2017-09-27T09:50:00.005Z,8604
2017-09-27T09:51:00.697Z,8268
2017-09-27T09:52:00.048Z,8512
2017-09-27T09:53:00.713Z,8452
2017-09-27T09:54:00.740Z,8408
2017-09-27T09:55:00.120Z,8420
2017-09-27T09:56:15.376Z,9880
2017-09-27T09:57:00.493Z,10976
2017-09-27T09:58:15.460Z,11272
2017-09-27T09:59:15.451Z,10240
2017-09-27T10:00:00.885Z,10564
2017-09-27T10:01:00.594Z,13332
2017-09-27T10:02:00.614Z,12980
2017-09-27T10:04:00.980Z,13120
2017-09-27T10:05:15.625Z,12708
2017-09-27T10:06:00.391Z,12152
2017-09-27T10:07:00.097Z,9996
2017-09-27T10:09:01.099Z,8768
2017-09-27T10:10:00.804Z,7616
2017-09-27T10:11:00.832Z,9304
2017-09-27T10:12:15.466Z,9240
2017-09-27T10:13:00.881Z,9976
2017-09-27T10:14:15.494Z,8696
2017-09-27T10:15:15.523Z,9244
2017-09-27T10:17:15.250Z,9408
2017-09-27T10:18:01.011Z,10100
2017-09-27T10:19:01.027Z,9100
2017-09-27T10:20:01.051Z,8748
2017-09-27T10:21:01.090Z,9160
2017-09-27T10:22:01.110Z,10372
2017-09-27T10:23:01.452Z,10060
2017-09-27T10:24:01.467Z,8976
2017-09-27T10:25:01.180Z,8380
2017-09-27T10:26:01.200Z,8032
2017-09-27T10:27:01.540Z,8264
2017-09-27T10:28:15.519Z,8664
2017-09-27T10:30:01.614Z,9840
2017-09-27T10:32:01.351Z,9168
2017-09-27T10:33:16.279Z,9124
2017-09-27T10:34:01.710Z,9112
2017-09-27T10:35:16.329Z,8712
2017-09-27T10:36:01.443Z,8780
2017-09-27T10:37:16.390Z,9204
2017-09-27T10:38:01.172Z,8920
2017-09-27T10:39:00.877Z,8560
2017-09-27T10:40:01.858Z,8120
2017-09-27T10:41:01.882Z,7808
2017-09-27T10:42:01.918Z,8452
2017-09-27T10:43:01.936Z,8392
2017-09-27T10:44:16.547Z,8912
2017-09-27T10:45:01.985Z,9700
2017-09-27T10:46:02.006Z,10796
2017-09-27T10:47:01.714Z,11480
2017-09-27T10:48:02.060Z,11732
2017-09-27T10:49:02.127Z,11708
2017-09-27T10:50:02.108Z,12156
2017-09-27T10:52:01.871Z,12336
2017-09-27T10:53:01.860Z,11644
2017-09-27T10:54:01.878Z,10604
2017-09-27T10:55:02.232Z,10412
2017-09-27T10:56:01.612Z,9684
2017-09-27T10:57:01.980Z,9456
2017-09-27T10:58:01.984Z,8824
2017-09-27T10:59:16.919Z,9644
2017-09-27T11:00:02.068Z,9436
2017-09-27T11:01:16.648Z,8424
2017-09-27T11:02:17.008Z,8084
2017-09-27T11:03:02.113Z,8480
2017-09-27T11:04:02.465Z,9064
2017-09-27T11:05:02.159Z,9580
2017-09-27T11:06:02.180Z,9592
2017-09-27T11:08:02.243Z,8952
2017-09-27T11:09:02.265Z,9084
2017-09-27T11:10:02.614Z,9228
2017-09-27T11:11:16.913Z,9564
2017-09-27T11:12:17.246Z,9956
2017-09-27T11:13:17.285Z,10152
2017-09-27T11:14:02.693Z,10268
2017-09-27T11:15:02.727Z,10588
2017-09-27T11:16:17.016Z,9340
2017-09-27T11:18:02.151Z,9596
2017-09-27T11:19:02.502Z,9512
2017-09-27T11:20:17.436Z,8768
2017-09-27T11:21:02.867Z,8568
2017-09-27T11:22:02.892Z,8720
2017-09-27T11:23:02.602Z,8640
2017-09-27T11:24:02.625Z,8948
2017-09-27T11:25:02.970Z,9128
2017-09-27T11:26:02.676Z,9100
2017-09-27T11:27:02.697Z,9360
2017-09-27T11:28:02.411Z,9264
2017-09-27T11:29:02.746Z,8900
2017-09-27T11:30:02.138Z,8812
2017-09-27T11:31:17.390Z,8892
2017-09-27T11:33:03.162Z,9004
2017-09-27T11:34:03.194Z,9004
2017-09-27T11:35:03.213Z,9140
2017-09-27T11:36:17.834Z,9616
2017-09-27T11:37:02.633Z,9564
2017-09-27T11:38:03.299Z,9388
2017-09-27T11:39:17.904Z,9332
2017-09-27T11:40:03.345Z,9336
2017-09-27T11:41:03.078Z,9264
2017-09-27T11:42:03.393Z,9432
2017-09-27T11:44:03.448Z,10364
2017-09-27T11:45:03.509Z,10540
2017-09-27T11:46:03.488Z,10348
2017-09-27T11:47:18.103Z,9892
2017-09-27T11:48:03.539Z,10100
2017-09-27T11:49:03.250Z,9820
2017-09-27T11:50:03.602Z,10140
2017-09-27T11:51:03.612Z,10608
2017-09-27T11:52:18.232Z,10416
2017-09-27T11:53:03.681Z,10352
2017-09-27T11:54:03.731Z,10520
2017-09-27T11:55:18.305Z,10008
2017-09-27T11:56:03.428Z,9436
2017-09-27T11:58:03.487Z,10236
2017-09-27T11:59:03.822Z,10828
2017-09-27T12:00:03.521Z,10356
2017-09-27T12:01:03.915Z,10368
2017-09-27T12:02:03.895Z,11516
2017-09-27T12:03:18.520Z,11820
2017-09-27T12:04:03.940Z,11112
2017-09-27T12:05:18.553Z,11140
2017-09-27T12:06:18.265Z,11424
2017-09-27T12:07:03.697Z,11472
2017-09-27T12:08:03.722Z,11644
2017-09-27T12:09:18.338Z,11672
2017-09-27T12:10:04.096Z,11036
2017-09-27T12:11:03.798Z,10484
2017-09-27T12:12:04.146Z,10732
2017-09-27T12:13:03.852Z,10408
2017-09-27T12:14:04.196Z,9028
2017-09-27T12:15:04.222Z,8900
2017-09-27T12:16:04.245Z,8632
2017-09-27T12:17:04.268Z,8160
2017-09-27T12:18:04.292Z,7876
2017-09-27T12:19:18.592Z,7548
2017-09-27T12:20:04.028Z,7356
2017-09-27T12:21:18.963Z,7172
2017-09-27T12:22:04.080Z,7164
2017-09-27T12:23:04.427Z,7144
2017-09-27T12:24:04.177Z,7088
2017-09-27T12:25:04.149Z,7096
2017-09-27T12:26:04.178Z,7016
2017-09-27T12:27:04.206Z,7016
2017-09-27T12:28:04.233Z,6956
2017-09-27T12:29:04.571Z,6808
2017-09-27T12:30:04.605Z,6820
2017-09-27T12:31:04.302Z,6836
2017-09-27T12:32:04.647Z,6632
2017-09-27T12:33:04.671Z,6676
2017-09-27T12:34:19.289Z,6528
2017-09-27T12:35:04.722Z,6516
2017-09-27T12:36:04.759Z,6664
2017-09-27T12:37:04.467Z,6984
2017-09-27T12:38:19.071Z,6684
2017-09-27T12:40:04.531Z,6688
2017-09-27T12:41:19.461Z,6604
2017-09-27T12:42:04.898Z,6632
2017-09-27T12:43:04.927Z,6676
2017-09-27T12:44:04.624Z,6748
2017-09-27T12:45:05.021Z,6756
2017-09-27T12:46:04.998Z,6784
2017-09-27T12:47:05.020Z,6872
2017-09-27T12:48:05.049Z,6960
2017-09-27T12:49:05.076Z,7136
2017-09-27T12:50:04.779Z,7412
2017-09-27T12:51:04.806Z,7712
2017-09-27T12:52:05.145Z,7648
2017-09-27T12:53:05.167Z,7808
2017-09-27T12:54:19.788Z,7400
2017-09-27T12:55:05.221Z,7508
2017-09-27T12:56:04.663Z,9352
2017-09-27T12:57:05.276Z,9140
2017-09-27T12:58:05.304Z,8360
2017-09-27T12:59:19.958Z,8980
2017-09-27T13:00:05.027Z,8640
2017-09-27T13:01:05.371Z,8784
2017-09-27T13:02:05.077Z,9372
2017-09-27T13:03:05.421Z,8896
2017-09-27T13:04:05.448Z,8516
2017-09-27T13:05:05.154Z,7948
2017-09-27T13:06:19.769Z,8488
2017-09-27T13:07:05.200Z,7552
2017-09-27T13:08:05.230Z,8516
2017-09-27T13:10:05.279Z,8092
2017-09-27T13:11:05.306Z,6888
2017-09-27T13:12:05.326Z,6300
2017-09-27T13:13:05.040Z,6516
2017-09-27T13:14:20.288Z,5912
2017-09-27T13:15:05.407Z,5780
2017-09-27T13:16:05.749Z,5752
2017-09-27T13:17:05.134Z,5668
2017-09-27T13:18:05.795Z,5656
2017-09-27T13:19:05.873Z,5664
2017-09-27T13:20:05.532Z,5684
2017-09-27T13:21:05.555Z,5684
2017-09-27T13:22:20.172Z,5668
2017-09-27T13:23:05.925Z,5624
2017-09-27T13:25:05.976Z,5460
2017-09-27T13:26:06.001Z,5392
2017-09-27T13:27:06.019Z,5368
2017-09-27T13:28:20.640Z,5384
2017-09-27T13:29:06.075Z,5384
2017-09-27T13:30:05.781Z,5388
2017-09-27T13:31:06.122Z,5420
2017-09-27T13:32:06.150Z,5460
2017-09-27T13:33:06.174Z,5464
2017-09-27T13:34:05.878Z,5408
2017-09-27T13:35:06.225Z,5372
2017-09-27T13:36:05.606Z,5332
2017-09-27T13:38:20.886Z,5324
2017-09-27T13:39:06.331Z,5340
2017-09-27T13:40:06.343Z,5532
2017-09-27T13:41:20.963Z,5604
2017-09-27T13:42:07.395Z,5980
2017-09-27T13:43:06.420Z,5580
2017-09-27T13:44:06.451Z,5488
2017-09-27T13:45:06.477Z,5396
2017-09-27T13:46:06.498Z,5372
2017-09-27T13:47:06.250Z,5356
2017-09-27T13:48:06.546Z,5248
2017-09-27T13:49:06.568Z,5184
2017-09-27T13:50:06.597Z,5084
2017-09-27T13:51:06.300Z,5000
2017-09-27T13:52:06.637Z,4904
2017-09-27T13:53:06.667Z,4840
2017-09-27T13:54:21.280Z,4748
2017-09-27T13:56:06.737Z,4700
2017-09-27T13:57:06.776Z,4696
2017-09-27T13:58:06.797Z,4696
2017-09-27T13:59:06.499Z,4692
2017-09-27T14:00:07.048Z,4696
2017-09-27T14:02:06.902Z,4668
2017-09-27T14:03:06.599Z,4652
2017-09-27T14:04:06.944Z,4624
2017-09-27T14:05:06.643Z,4564
2017-09-27T14:06:06.671Z,4516
2017-09-27T14:07:07.017Z,4488
2017-09-27T14:08:06.717Z,4484
2017-09-27T14:09:21.653Z,4512
2017-09-27T14:11:06.483Z,4636
2017-09-27T14:12:07.140Z,4724
2017-09-27T14:13:21.436Z,4800
2017-09-27T14:14:07.189Z,4808
2017-09-27T14:15:06.892Z,4788
2017-09-27T14:16:07.237Z,4740
2017-09-27T14:17:07.310Z,4732
2017-09-27T14:18:06.964Z,4792
2017-09-27T14:19:07.303Z,4972
2017-09-27T14:20:07.341Z,5916
2017-09-27T14:21:07.042Z,5148
2017-09-27T14:22:07.071Z,4884
2017-09-27T14:23:07.135Z,4780
2017-09-27T14:24:07.429Z,4640
2017-09-27T14:25:21.731Z,4516
2017-09-27T14:26:07.163Z,4380
2017-09-27T14:28:07.527Z,4148
2017-09-27T14:29:07.608Z,4084
2017-09-27T14:30:07.589Z,4016
2017-09-27T14:32:07.309Z,3924
2017-09-27T14:33:07.339Z,3884
2017-09-27T14:34:07.683Z,3852
2017-09-27T14:35:07.383Z,3808
2017-09-27T14:36:07.726Z,3752
2017-09-27T14:37:07.428Z,3712
2017-09-27T14:38:07.458Z,3684
2017-09-27T14:39:07.481Z,3676
2017-09-27T14:40:07.503Z,3688
2017-09-27T14:41:22.443Z,3748
2017-09-27T14:42:07.872Z,3768